Dutch
Home     News     Corporate     Events & Tours     Flight ops     Crew centre      
My transavia virtual    Join us    Last logs    Who is flying    Forum    Software    Training    VRTS     
 

view flightdata
view flightplan
view OFP
view flightlog



flightdata:
pilot: Miles Codrington
flight: TRA6592
from: LOWS (Salzburg)
to: EHAM (Amsterdam Schiphol)
date: 27-02-2019
departure: 23:39z
arrival: 01:13z
duration: 1:34
aircraft: B738 (PHHZL)
distance: 467 NM
touchdown: no landing



flightplan:
-(FPL-TRA6592-IS
-B738/M-SDEEFGHIJRWXY/LB1
-LOWS2335
-N0443F360 INROM DCT SIMBA Y700 NENUM UZ39 LALIN L604 BIGGE T281 NORKU
-EHAM0118 EHRD
-E/0204 PBN/B1D1O1 DOF/190226 REG/PHHZL SEL/JQDL CODE/4841A5 OPR/TRA RVR/200 RMK/TCAS ACFT CERTIFIED NOISE STAGE 4)



operational flightplan (OFP):
DISPATCH BRIEFING
--------- --------- --------- --------- --------- --------- --------- --------- --------- ---------
PREDEPARTURE ATC CLEARANCE:
.

.
--------- --------- --------- --------- --------- --------- --------- --------- --------- ---------
OFP 1       26 FEB 19/23:20


TRA6592    C/S TRA6006  LOWS/SZG    EHAM/AMS            CRYZ SYS               CI 10
26 FEB 19  PH-HZL       1555/1605   1728/1723           GND DIST      418   
             TAB:       CTOT ....  STA 17:25           AIR DIST      504
                                                       AVG W/C       H015
MAXIMUM    ZFW 62731  LAW 66360   TOW 78795            AVG ISA       M01
ESTIMATED  ZFW 53854  LAW 55544   TOW 58649            F-F FACTOR     0.6
ACTUAL     ZFW......  LAW......  TOW.......

--------- --------- --------- --------- --------- --------- --------- --------- --------- ---------
TRIP        3105   0118           .....  .....
CONT         168   0005           .....  .....
ALTN         512   0011  EHRD     .....  .....  ....
FINAL       1010   0030           .....  .....
ADDNL          0   0000           .....  .....
TANKERING                  
PLN TOF     4795   0204
DIFF        ....   ....
PLN TOF     ....   ....  (CORRECTED)   
EXTRA          0   ....                  
TOF         4795                    
TAXI         200                      
BLOCK       4995        

--------- --------- --------- --------- --------- --------- --------- --------- --------- ---------

REASON EXTRA FUEL     MATRIX FUEL: ...
O ECN-ECONOMICAL      O TMP-TEMPORARILY      O ATC-AIR TRAFFIC CONTROL
O FOB-FUEL ON BOARD   O MSC-MISCELLANEOUS    O FPC-FLIGHT PLN CORR
O WXR-WEATHER         O TEC_TECHNICAL        ACT.CI/CRZ USED: . . .

--------- --------- --------- --------- --------- --------- --------- --------- --------- ---------
                                                  00 MIN HOLD EHAM: 0 EXTRA


--------- --------- --------- --------- --------- --------- --------- --------- --------- ---------
COMMANDERS NAME:                                  SIGNATURE:

--------- --------- --------- --------- --------- --------- --------- --------- --------- ---------
FROM:   LOWS ELEV 1411         TO: EHAM ELEV -11     ALTN: EHRD ELEV -14
ATC C/S      : C/S TRA6592                AVG ISA  : M01
CO-ROUTE     : ---                       AVG TT   :
FMC-RES      : 1522                      AVG W/C  : H015
CRZ ALT      : FL400
CRZ SYS      : CI 10


           LOWS/33  N0443F400 SIMB3A SIMBA Y700 NENUM UZ39 LALIN UL604 BIGGE T281 NORKU
NORK2A EHAM/06

--------- --------- --------- --------- --------- --------- --------- --------- --------- ---------


RVSM ALT CHECK:  FL:...... LEFT: ...... STBY: ...... RIGHT: ......

--------- --------- ---------   -------- --------- --------- ---------


--------- --------- --------- --------- --------- --------- --------- --------- --------- ---------
DESTINATION ALTERNATE EHRD
--------- --------- --------- --------- --------- --------- --------- --------- --------- ---------



--------- --------- --------- --------- --------- --------- --------- --------- --------- ---------
ALTERNATE SUMMARY
--------- --------- --------- --------- --------- --------- --------- --------- --------- ---------

     ALTN     DIST  LVL      WC    TIME   FUEL  VIA
     EHRD/06    36 FL060    T001   0011    512  AMS
INFO/EHEH/03    66 FL110    T002   0017    750  LOPI1R LOPIK LOPI1E
                                          P238
INFO/EBBR/07L  102 FL160    H003   0024   1022  KUDA1R WOODY WODY7A
                                          P510
INFO/EDDL/05R  124 FL190    T008   0027   1131  ARNE2R ARNEM T196 TEBRO TEBR1X
                                          P619


-(FPL-TRA6592-IS
-B738/M-SDEEFGHIJRWXY/LB1
-LOWS2335
-N0443F360 INROM DCT SIMBA Y700 NENUM UZ39 LALIN L604 BIGGE T281 NORKU
-EHAM0118 EHRD
-E/0204 PBN/B1D1O1 DOF/190226 REG/PHHZL SEL/JQDL CODE/4841A5 OPR/TRA RVR/200 RMK/TCAS ACFT CERTIFIED NOISE STAGE 4)

WEATHER BRIEFING - GENERATED 26 FEB 2019 23:20 UTC
--------------------------------------------------------------------------------

LOWS EHAM EHRD EHEH EBBR EDDL

--------------------------------------------------------------------------------
ORIGIN: LOWS (SALZBURG)
--------------------------------------------------------------------------------
LOWS 262250Z AUTO 15003KT 120V180 9999 BKN070 BKN090 07/01 Q1031

LOWS 261715Z 2618/2718 15004KT 9999 FEW080 BKN130 TX15/2715Z TN01/2706Z
      BECMG 2620/2622 CAVOK
      BECMG 2710/2712 33005KT
      BECMG 2716/2718 15005KT


--------------------------------------------------------------------------------
DESTINATION: EHAM (SCHIPHOL)
--------------------------------------------------------------------------------
EHAM 262255Z 10005KT CAVOK 06/03 Q1031 NOSIG

EHAM 261701Z 2618/2724 VRB03KT CAVOK PROB40 2702/2708 6000
      BECMG 2708/2711 23008KT


--------------------------------------------------------------------------------
ALTERNATE: EHRD (ROTTERDAM)
--------------------------------------------------------------------------------
EHRD 262255Z AUTO 10003KT 9999 NSC 07/04 Q1031 NOSIG

EHRD 261701Z 2618/2724 VRB03KT CAVOK PROB40 2702/2708 4000 BR
      BECMG 2708/2711 23008KT


--------------------------------------------------------------------------------
ALTERNATE: EHEH (EINDHOVEN)
--------------------------------------------------------------------------------
EHEH 262255Z AUTO 09002KT 9999 NCD 06/03 Q1031 BLU

EHEH 261711Z 2618/2724 10003KT CAVOK
      BECMG 2622/2624 15005KT
      BECMG 2709/2711 22005KT


--------------------------------------------------------------------------------
ALTERNATE: EBBR (BRUSSELS)
--------------------------------------------------------------------------------
EBBR 262250Z 12004KT CAVOK 10/03 Q1031 NOSIG

EBBR 261703Z 2618/2724 11005KT CAVOK=  EBCI 261703Z 2618/2724 10004KT CAVOK


--------------------------------------------------------------------------------
ALTERNATE: EDDL (DUSSELDORF)
--------------------------------------------------------------------------------
EDDL 262250Z VRB02KT CAVOK 04/01 Q1031 NOSIG

EDDL 261700Z 2618/2724 VRB03KT CAVOK
      BECMG 2701/2704 17006KT


NOTAM BRIEFING - GENERATED 26 FEB 2019 23:20 UTC
--------------------------------------------------------------------------------

LOWS EHAM EHRD EHRD EHEH EBBR EDDL

--------------------------------------------------------------------------------
GLOBAL TRANSAVIA.COM VIRTUAL NOTAMS
--------------------------------------------------------------------------------
REF:NIL PLEASE CONTACT OPERATIONS IN CASE OF STRUCTURAL FLIGHTPLAN ERRORS ON FLIGHT-OPS@TRANSAVIA-VIRTUAL.COM
VALID:UFN

REF:NIL
PLEASE CHECK ACARS EVERY 10 MINUTES WHEN FLYING WITH SOUND OFF. AN NEW ACARS MESSAGE PRODUCE A SOUND SIGNAL UNTILL ITS READ. FLOWCONTROL DON'T RECEIVE MUCH REACTION ON OUTGOING ACARS MESSAGES ACCORDING FLIGHTSTATUS.
SOURCE: SPL/HV/OCC/
END VALID: UFN

REF:NIL
PLEASE CONTACT FLOWCONTROL IN CASE OF PROBLEMS WITH ROUTINGS
SOURCE: SPL/HV/OCC/
END VALID: UFN

REF:NIL
IN CASE OF ENGINE-OUT FLY V2 OR V2 20 MAX. UNTIL ABOVE MSA.
LEVEL-OFF AT AN ALTITUDE ROUNDED OFF TO THE FIRST 1000 FT OF THE HIGHEST MSA.
E.G: MSA EHAM; 1.7 AND 2.3 LEVEL-OFF 3000 FT. AFTER LANDING MAKE A REP TO OCC ON 131.975
SOURCE:SPL/HV/OCC
END VALID:UFN



flightlog:
Pilot : Miles Codrington
Flight: TRA6592
From  : LOWS Salzburg
To    : EHAM Schiphol

[FLIGHTLOG] 1.5.4
26-02-2019 23:31:56z, logging started
26-02-2019 23:39:32z, parking brake released
26-02-2019 23:41:59z, flaps set to 25%
26-02-2019 23:42:01z, flaps set to 37%
26-02-2019 23:46:55z, pos report: 009 KIAS, 01 419 ft, heading 337, winds 146 @ 04 kts
26-02-2019 23:47:33z, take-off at 154 KIAS
26-02-2019 23:47:33z, pos report: 154 KIAS, 01 421 ft, heading 337, winds 146 @ 04 kts
26-02-2019 23:47:33z, flying online @ VATSIM (TRA6592)
26-02-2019 23:47:33z, position: LOWS - Salzburg
26-02-2019 23:47:36z, retracted gear at 160 KIAS and 30 ft AGL
26-02-2019 23:49:49z, flaps set to 25%
26-02-2019 23:49:50z, flaps set to 12%
26-02-2019 23:50:04z, flaps set to 0%
27-02-2019 00:01:56z, pos report: 272 KIAS, 32 059 ft, heading 330, winds 013 @ 54 kts
27-02-2019 00:16:57z, pos report: 255 KIAS, 36 494 ft, heading 317, winds 013 @ 31 kts
27-02-2019 00:31:58z, pos report: 254 KIAS, 36 480 ft, heading 310, winds 345 @ 19 kts
27-02-2019 00:46:59z, pos report: 266 KIAS, 18 540 ft, heading 309, winds 306 @ 14 kts
27-02-2019 01:00:38z, flaps set to 12%
27-02-2019 01:01:24z, flaps set to 37%
27-02-2019 01:01:44z, below glideslope
27-02-2019 01:02:00z, pos report: 181 KIAS, 03 200 ft, heading 217, winds 177 @ 08 kts
27-02-2019 01:02:04z, intercepted localizer
27-02-2019 01:02:16z, on glideslope
27-02-2019 01:04:06z, flaps set to 62%
27-02-2019 01:04:10z, lowered gear at 167 KIAS and 1624 ft AGL
27-02-2019 01:04:26z, flaps set to 75%
27-02-2019 01:04:28z, flaps set to 87%
27-02-2019 01:07:14z, flaps set to 12%
27-02-2019 01:07:29z, retracted spoilers
27-02-2019 01:13:48z, parking brake set
27-02-2019 01:15:21z, logging ended

©2009-2019, transavia virtual. All rights reserved. This website is only meant for simulation purposes.
This website is not owned by transavia, nor is transavia responsible for the content of this website.